sensor_id;sensor_type;location;lat;lon;timestamp;P1;durP1;ratioP1;P2;durP2;ratioP2
22606;SDS011;11470;20.968;105.834;2023-02-02T00:04:28;51.92;;;28.58;;
22606;SDS011;11470;20.968;105.834;2023-02-02T00:09:36;47.13;;;28.35;;
22606;SDS011;11470;20.968;105.834;2023-02-02T00:14:42;48.77;;;27.57;;
22606;SDS011;11470;20.968;105.834;2023-02-02T00:19:49;53.90;;;30.48;;
22606;SDS011;11470;20.968;105.834;2023-02-02T00:24:54;48.33;;;27.02;;
22606;SDS011;11470;20.968;105.834;2023-02-02T00:30:01;58.05;;;31.15;;
22606;SDS011;11470;20.968;105.834;2023-02-02T00:35:07;64.00;;;35.47;;
22606;SDS011;11470;20.968;105.834;2023-02-02T00:45:18;51.42;;;30.40;;
22606;SDS011;11470;20.968;105.834;2023-02-02T00:50:25;64.70;;;33.03;;
22606;SDS011;11470;20.968;105.834;2023-02-02T00:55:31;57.00;;;30.77;;
22606;SDS011;11470;20.968;105.834;2023-02-02T01:00:37;65.78;;;33.13;;
22606;SDS011;11470;20.968;105.834;2023-02-02T01:05:43;64.07;;;31.98;;
22606;SDS011;11470;20.968;105.834;2023-02-02T01:10:50;56.95;;;32.13;;
22606;SDS011;11470;20.968;105.834;2023-02-02T01:15:57;65.60;;;33.30;;
22606;SDS011;11470;20.968;105.834;2023-02-02T01:21:05;57.67;;;30.80;;
22606;SDS011;11470;20.968;105.834;2023-02-02T01:26:14;59.20;;;33.45;;
22606;SDS011;11470;20.968;105.834;2023-02-02T01:31:21;64.75;;;36.60;;
22606;SDS011;11470;20.968;105.834;2023-02-02T01:36:30;61.25;;;35.28;;
22606;SDS011;11470;20.968;105.834;2023-02-02T01:46:41;64.15;;;32.90;;
22606;SDS011;11470;20.968;105.834;2023-02-02T01:51:50;66.70;;;36.07;;
22606;SDS011;11470;20.968;105.834;2023-02-02T01:57:02;70.40;;;40.38;;
22606;SDS011;11470;20.968;105.834;2023-02-02T02:02:12;60.38;;;34.35;;
22606;SDS011;11470;20.968;105.834;2023-02-02T02:07:18;54.10;;;31.63;;
22606;SDS011;11470;20.968;105.834;2023-02-02T02:39:37;69.18;;;38.38;;
22606;SDS011;11470;20.968;105.834;2023-02-02T02:44:48;62.17;;;34.20;;
22606;SDS011;11470;20.968;105.834;2023-02-02T02:49:55;72.20;;;40.42;;
22606;SDS011;11470;20.968;105.834;2023-02-02T02:55:06;72.68;;;41.17;;
22606;SDS011;11470;20.968;105.834;2023-02-02T03:00:32;70.43;;;38.97;;
22606;SDS011;11470;20.968;105.834;2023-02-02T03:11:00;73.72;;;40.28;;
22606;SDS011;11470;20.968;105.834;2023-02-02T03:16:10;61.38;;;34.92;;
22606;SDS011;11470;20.968;105.834;2023-02-02T03:21:18;68.60;;;38.05;;
22606;SDS011;11470;20.968;105.834;2023-02-02T03:26:28;80.93;;;41.85;;
22606;SDS011;11470;20.968;105.834;2023-02-02T03:31:33;78.03;;;39.25;;
22606;SDS011;11470;20.968;105.834;2023-02-02T03:36:39;80.90;;;42.53;;
22606;SDS011;11470;20.968;105.834;2023-02-02T03:41:45;57.37;;;33.10;;
22606;SDS011;11470;20.968;105.834;2023-02-02T03:46:54;52.73;;;33.37;;
22606;SDS011;11470;20.968;105.834;2023-02-02T03:51:59;81.07;;;46.03;;
22606;SDS011;11470;20.968;105.834;2023-02-02T03:57:08;67.38;;;41.05;;
22606;SDS011;11470;20.968;105.834;2023-02-02T04:02:13;77.88;;;45.10;;
22606;SDS011;11470;20.968;105.834;2023-02-02T04:07:19;84.15;;;49.05;;
22606;SDS011;11470;20.968;105.834;2023-02-02T04:12:25;98.07;;;55.53;;
22606;SDS011;11470;20.968;105.834;2023-02-02T04:17:34;87.83;;;52.53;;
22606;SDS011;11470;20.968;105.834;2023-02-02T04:22:42;96.00;;;58.10;;
22606;SDS011;11470;20.968;105.834;2023-02-02T04:27:52;103.03;;;58.13;;
22606;SDS011;11470;20.968;105.834;2023-02-02T04:32:57;92.57;;;45.25;;
22606;SDS011;11470;20.968;105.834;2023-02-02T04:38:04;90.05;;;51.38;;
22606;SDS011;11470;20.968;105.834;2023-02-02T04:43:11;82.15;;;44.95;;
22606;SDS011;11470;20.968;105.834;2023-02-02T04:48:21;75.15;;;43.40;;
22606;SDS011;11470;20.968;105.834;2023-02-02T04:53:27;91.63;;;52.73;;
22606;SDS011;11470;20.968;105.834;2023-02-02T04:58:33;104.75;;;58.55;;
22606;SDS011;11470;20.968;105.834;2023-02-02T05:03:38;109.72;;;61.53;;
22606;SDS011;11470;20.968;105.834;2023-02-02T05:08:45;105.45;;;61.70;;
22606;SDS011;11470;20.968;105.834;2023-02-02T05:13:54;132.50;;;74.50;;
22606;SDS011;11470;20.968;105.834;2023-02-02T05:19:00;146.40;;;84.25;;
22606;SDS011;11470;20.968;105.834;2023-02-02T05:24:11;134.05;;;75.95;;
22606;SDS011;11470;20.968;105.834;2023-02-02T05:29:17;151.50;;;88.35;;
22606;SDS011;11470;20.968;105.834;2023-02-02T05:34:25;126.63;;;70.28;;
22606;SDS011;11470;20.968;105.834;2023-02-02T05:39:32;170.02;;;93.45;;
22606;SDS011;11470;20.968;105.834;2023-02-02T05:44:38;176.77;;;100.47;;
22606;SDS011;11470;20.968;105.834;2023-02-02T05:49:48;182.65;;;99.75;;
22606;SDS011;11470;20.968;105.834;2023-02-02T05:54:54;203.95;;;111.05;;
22606;SDS011;11470;20.968;105.834;2023-02-02T06:00:00;157.05;;;89.43;;
22606;SDS011;11470;20.968;105.834;2023-02-02T06:05:12;178.68;;;103.97;;
22606;SDS011;11470;20.968;105.834;2023-02-02T06:10:21;173.85;;;98.53;;
22606;SDS011;11470;20.968;105.834;2023-02-02T06:15:27;165.32;;;94.00;;
22606;SDS011;11470;20.968;105.834;2023-02-02T06:20:37;180.32;;;106.35;;
22606;SDS011;11470;20.968;105.834;2023-02-02T06:25:45;234.90;;;133.70;;
22606;SDS011;11470;20.968;105.834;2023-02-02T06:30:51;200.15;;;117.80;;
22606;SDS011;11470;20.968;105.834;2023-02-02T06:36:03;241.67;;;137.77;;
22606;SDS011;11470;20.968;105.834;2023-02-02T06:41:09;199.85;;;108.25;;
22606;SDS011;11470;20.968;105.834;2023-02-02T06:46:21;234.13;;;136.95;;
22606;SDS011;11470;20.968;105.834;2023-02-02T06:51:27;226.13;;;133.40;;
22606;SDS011;11470;20.968;105.834;2023-02-02T07:20:58;263.83;;;151.20;;
22606;SDS011;11470;20.968;105.834;2023-02-02T07:26:14;229.33;;;134.10;;
22606;SDS011;11470;20.968;105.834;2023-02-02T07:31:27;234.88;;;137.68;;
22606;SDS011;11470;20.968;105.834;2023-02-02T07:36:45;229.95;;;133.68;;
22606;SDS011;11470;20.968;105.834;2023-02-02T07:41:59;251.10;;;138.50;;
22606;SDS011;11470;20.968;105.834;2023-02-02T07:47:16;244.35;;;137.60;;
22606;SDS011;11470;20.968;105.834;2023-02-02T07:52:27;254.55;;;145.10;;
22606;SDS011;11470;20.968;105.834;2023-02-02T07:57:39;259.27;;;148.55;;
22606;SDS011;11470;20.968;105.834;2023-02-02T08:02:53;269.55;;;156.15;;
22606;SDS011;11470;20.968;105.834;2023-02-02T08:08:14;225.38;;;132.65;;
22606;SDS011;11470;20.968;105.834;2023-02-02T08:13:37;283.70;;;163.70;;
22606;SDS011;11470;20.968;105.834;2023-02-02T08:19:01;275.95;;;160.60;;
22606;SDS011;11470;20.968;105.834;2023-02-02T08:24:12;251.45;;;142.63;;
22606;SDS011;11470;20.968;105.834;2023-02-02T08:29:23;275.30;;;158.27;;
22606;SDS011;11470;20.968;105.834;2023-02-02T08:34:33;259.08;;;147.90;;
22606;SDS011;11470;20.968;105.834;2023-02-02T08:39:56;274.33;;;146.40;;
22606;SDS011;11470;20.968;105.834;2023-02-02T08:45:13;263.05;;;147.38;;
22606;SDS011;11470;20.968;105.834;2023-02-02T08:50:50;250.02;;;139.93;;
22606;SDS011;11470;20.968;105.834;2023-02-02T08:56:04;269.25;;;155.00;;
22606;SDS011;11470;20.968;105.834;2023-02-02T09:01:17;263.02;;;155.40;;
22606;SDS011;11470;20.968;105.834;2023-02-02T09:06:34;262.00;;;147.60;;
22606;SDS011;11470;20.968;105.834;2023-02-02T09:11:43;277.05;;;151.55;;
22606;SDS011;11470;20.968;105.834;2023-02-02T09:16:50;255.95;;;141.18;;
22606;SDS011;11470;20.968;105.834;2023-02-02T09:22:01;242.27;;;139.50;;
22606;SDS011;11470;20.968;105.834;2023-02-02T09:27:07;273.95;;;149.27;;
22606;SDS011;11470;20.968;105.834;2023-02-02T09:32:33;247.00;;;144.43;;
22606;SDS011;11470;20.968;105.834;2023-02-02T09:37:43;240.15;;;140.90;;
22606;SDS011;11470;20.968;105.834;2023-02-02T09:54:19;253.98;;;141.25;;
22606;SDS011;11470;20.968;105.834;2023-02-02T09:59:36;259.57;;;154.00;;
22606;SDS011;11470;20.968;105.834;2023-02-02T10:05:07;246.38;;;135.93;;
22606;SDS011;11470;20.968;105.834;2023-02-02T10:10:43;246.27;;;144.45;;
22606;SDS011;11470;20.968;105.834;2023-02-02T10:22:08;189.80;;;114.60;;
22606;SDS011;11470;20.968;105.834;2023-02-02T10:27:36;201.30;;;117.38;;
22606;SDS011;11470;20.968;105.834;2023-02-02T10:32:57;201.45;;;114.07;;
22606;SDS011;11470;20.968;105.834;2023-02-02T10:38:39;166.35;;;90.18;;
22606;SDS011;11470;20.968;105.834;2023-02-02T10:44:14;166.25;;;95.30;;
22606;SDS011;11470;20.968;105.834;2023-02-02T10:49:42;149.45;;;87.30;;
22606;SDS011;11470;20.968;105.834;2023-02-02T10:55:13;166.15;;;94.05;;
22606;SDS011;11470;20.968;105.834;2023-02-02T11:00:48;154.55;;;84.72;;
22606;SDS011;11470;20.968;105.834;2023-02-02T11:05:59;140.63;;;65.10;;
22606;SDS011;11470;20.968;105.834;2023-02-02T11:11:41;143.05;;;78.00;;
22606;SDS011;11470;20.968;105.834;2023-02-02T11:17:03;151.40;;;77.55;;
22606;SDS011;11470;20.968;105.834;2023-02-02T11:22:24;136.57;;;70.72;;
22606;SDS011;11470;20.968;105.834;2023-02-02T11:27:41;126.07;;;59.28;;
22606;SDS011;11470;20.968;105.834;2023-02-02T11:32:59;116.40;;;58.53;;
22606;SDS011;11470;20.968;105.834;2023-02-02T11:38:38;128.93;;;64.10;;
22606;SDS011;11470;20.968;105.834;2023-02-02T11:43:48;116.85;;;59.90;;
22606;SDS011;11470;20.968;105.834;2023-02-02T11:49:26;115.40;;;56.80;;
22606;SDS011;11470;20.968;105.834;2023-02-02T11:54:37;105.97;;;50.22;;
22606;SDS011;11470;20.968;105.834;2023-02-02T11:59:47;66.68;;;28.80;;
22606;SDS011;11470;20.968;105.834;2023-02-02T12:05:11;69.57;;;30.73;;
22606;SDS011;11470;20.968;105.834;2023-02-02T12:10:45;119.78;;;60.28;;
22606;SDS011;11470;20.968;105.834;2023-02-02T12:16:21;108.70;;;51.70;;
22606;SDS011;11470;20.968;105.834;2023-02-02T12:27:57;113.15;;;59.78;;
22606;SDS011;11470;20.968;105.834;2023-02-02T12:33:59;122.97;;;63.50;;
22606;SDS011;11470;20.968;105.834;2023-02-02T12:52:28;111.18;;;55.17;;
22606;SDS011;11470;20.968;105.834;2023-02-02T12:58:29;108.22;;;56.00;;
22606;SDS011;11470;20.968;105.834;2023-02-02T13:10:20;105.47;;;51.10;;
22606;SDS011;11470;20.968;105.834;2023-02-02T13:16:14;112.43;;;54.90;;
22606;SDS011;11470;20.968;105.834;2023-02-02T13:22:22;137.82;;;66.57;;
22606;SDS011;11470;20.968;105.834;2023-02-02T13:27:43;133.85;;;63.72;;
22606;SDS011;11470;20.968;105.834;2023-02-02T13:33:10;106.90;;;57.47;;
22606;SDS011;11470;20.968;105.834;2023-02-02T13:38:44;112.50;;;55.70;;
22606;SDS011;11470;20.968;105.834;2023-02-02T13:44:19;122.20;;;59.90;;
22606;SDS011;11470;20.968;105.834;2023-02-02T13:50:08;113.13;;;53.05;;
22606;SDS011;11470;20.968;105.834;2023-02-02T13:56:00;101.55;;;51.67;;
22606;SDS011;11470;20.968;105.834;2023-02-02T14:02:29;122.53;;;60.67;;
22606;SDS011;11470;20.968;105.834;2023-02-02T14:31:26;113.43;;;60.63;;
22606;SDS011;11470;20.968;105.834;2023-02-02T14:49:07;118.25;;;59.10;;
22606;SDS011;11470;20.968;105.834;2023-02-02T14:54:40;126.93;;;63.00;;
22606;SDS011;11470;20.968;105.834;2023-02-02T15:00:30;117.78;;;59.85;;
22606;SDS011;11470;20.968;105.834;2023-02-02T15:06:34;111.30;;;57.97;;
22606;SDS011;11470;20.968;105.834;2023-02-02T15:12:20;129.65;;;61.58;;
22606;SDS011;11470;20.968;105.834;2023-02-02T15:18:05;131.88;;;62.72;;
22606;SDS011;11470;20.968;105.834;2023-02-02T15:23:57;120.60;;;59.22;;
22606;SDS011;11470;20.968;105.834;2023-02-02T15:29:36;108.75;;;53.28;;
22606;SDS011;11470;20.968;105.834;2023-02-02T15:35:29;107.53;;;54.85;;
22606;SDS011;11470;20.968;105.834;2023-02-02T15:40:49;105.20;;;52.05;;
22606;SDS011;11470;20.968;105.834;2023-02-02T15:46:20;94.28;;;50.85;;
22606;SDS011;11470;20.968;105.834;2023-02-02T15:51:49;105.95;;;51.50;;
22606;SDS011;11470;20.968;105.834;2023-02-02T16:02:39;90.53;;;47.60;;
22606;SDS011;11470;20.968;105.834;2023-02-02T16:07:59;84.95;;;43.83;;
22606;SDS011;11470;20.968;105.834;2023-02-02T16:13:31;91.10;;;49.22;;
22606;SDS011;11470;20.968;105.834;2023-02-02T16:18:44;113.53;;;57.53;;
22606;SDS011;11470;20.968;105.834;2023-02-02T16:24:04;98.90;;;52.17;;
22606;SDS011;11470;20.968;105.834;2023-02-02T16:29:24;100.93;;;54.47;;
22606;SDS011;11470;20.968;105.834;2023-02-02T16:40:16;98.05;;;50.33;;
22606;SDS011;11470;20.968;105.834;2023-02-02T16:45:32;95.63;;;52.33;;
22606;SDS011;11470;20.968;105.834;2023-02-02T16:51:08;115.65;;;57.88;;
22606;SDS011;11470;20.968;105.834;2023-02-02T17:01:51;103.03;;;53.03;;
22606;SDS011;11470;20.968;105.834;2023-02-02T17:07:09;100.53;;;51.80;;
22606;SDS011;11470;20.968;105.834;2023-02-02T17:12:23;95.40;;;50.25;;
22606;SDS011;11470;20.968;105.834;2023-02-02T17:17:37;92.32;;;50.42;;
22606;SDS011;11470;20.968;105.834;2023-02-02T17:22:44;90.28;;;47.72;;
22606;SDS011;11470;20.968;105.834;2023-02-02T17:27:52;91.00;;;48.33;;
22606;SDS011;11470;20.968;105.834;2023-02-02T17:33:00;89.63;;;49.55;;
22606;SDS011;11470;20.968;105.834;2023-02-02T17:38:06;94.43;;;48.88;;
22606;SDS011;11470;20.968;105.834;2023-02-02T17:53:25;89.87;;;49.20;;
22606;SDS011;11470;20.968;105.834;2023-02-02T17:58:35;92.05;;;48.67;;
22606;SDS011;11470;20.968;105.834;2023-02-02T18:03:42;73.47;;;40.42;;
22606;SDS011;11470;20.968;105.834;2023-02-02T18:08:51;86.57;;;44.05;;
22606;SDS011;11470;20.968;105.834;2023-02-02T18:13:57;90.68;;;47.90;;
22606;SDS011;11470;20.968;105.834;2023-02-02T18:19:03;96.63;;;50.53;;
22606;SDS011;11470;20.968;105.834;2023-02-02T18:29:21;103.10;;;50.28;;
22606;SDS011;11470;20.968;105.834;2023-02-02T18:34:28;88.55;;;46.22;;
22606;SDS011;11470;20.968;105.834;2023-02-02T18:39:35;85.13;;;47.13;;
22606;SDS011;11470;20.968;105.834;2023-02-02T18:44:43;105.60;;;54.25;;
22606;SDS011;11470;20.968;105.834;2023-02-02T18:49:49;91.30;;;49.05;;
22606;SDS011;11470;20.968;105.834;2023-02-02T18:54:56;104.07;;;50.83;;
22606;SDS011;11470;20.968;105.834;2023-02-02T19:00:03;104.00;;;52.65;;
22606;SDS011;11470;20.968;105.834;2023-02-02T19:05:10;109.72;;;52.20;;
22606;SDS011;11470;20.968;105.834;2023-02-02T19:10:34;106.05;;;50.20;;
22606;SDS011;11470;20.968;105.834;2023-02-02T19:15:41;97.28;;;49.45;;
22606;SDS011;11470;20.968;105.834;2023-02-02T19:20:49;101.10;;;51.13;;
22606;SDS011;11470;20.968;105.834;2023-02-02T19:25:56;102.65;;;51.03;;
22606;SDS011;11470;20.968;105.834;2023-02-02T19:31:04;105.00;;;50.63;;
22606;SDS011;11470;20.968;105.834;2023-02-02T19:36:21;101.68;;;51.17;;
22606;SDS011;11470;20.968;105.834;2023-02-02T19:41:29;103.45;;;51.15;;
22606;SDS011;11470;20.968;105.834;2023-02-02T19:46:40;100.93;;;49.75;;
22606;SDS011;11470;20.968;105.834;2023-02-02T19:51:52;87.43;;;44.47;;
22606;SDS011;11470;20.968;105.834;2023-02-02T19:57:15;103.43;;;52.55;;
22606;SDS011;11470;20.968;105.834;2023-02-02T20:07:34;108.70;;;51.20;;
22606;SDS011;11470;20.968;105.834;2023-02-02T20:12:42;91.78;;;46.60;;
22606;SDS011;11470;20.968;105.834;2023-02-02T20:17:49;90.80;;;48.50;;
22606;SDS011;11470;20.968;105.834;2023-02-02T20:22:57;94.68;;;45.90;;
22606;SDS011;11470;20.968;105.834;2023-02-02T20:28:06;101.32;;;50.08;;
22606;SDS011;11470;20.968;105.834;2023-02-02T20:33:22;89.75;;;47.38;;
22606;SDS011;11470;20.968;105.834;2023-02-02T20:38:35;70.47;;;38.53;;
22606;SDS011;11470;20.968;105.834;2023-02-02T20:43:43;56.05;;;33.65;;
22606;SDS011;11470;20.968;105.834;2023-02-02T20:48:50;66.00;;;39.58;;
22606;SDS011;11470;20.968;105.834;2023-02-02T20:59:02;70.88;;;41.33;;
22606;SDS011;11470;20.968;105.834;2023-02-02T21:04:09;79.35;;;42.63;;
22606;SDS011;11470;20.968;105.834;2023-02-02T21:14:21;71.82;;;40.35;;
22606;SDS011;11470;20.968;105.834;2023-02-02T21:24:33;71.20;;;40.28;;
22606;SDS011;11470;20.968;105.834;2023-02-02T21:29:39;74.03;;;41.90;;
22606;SDS011;11470;20.968;105.834;2023-02-02T21:34:45;78.88;;;43.65;;
22606;SDS011;11470;20.968;105.834;2023-02-02T21:39:54;64.85;;;36.20;;
22606;SDS011;11470;20.968;105.834;2023-02-02T21:46:03;59.08;;;36.40;;
22606;SDS011;11470;20.968;105.834;2023-02-02T21:50:40;64.20;;;38.78;;
22606;SDS011;11470;20.968;105.834;2023-02-02T22:00:58;68.05;;;41.17;;
22606;SDS011;11470;20.968;105.834;2023-02-02T22:16:56;75.15;;;41.63;;
22606;SDS011;11470;20.968;105.834;2023-02-02T22:22:14;81.93;;;45.33;;
22606;SDS011;11470;20.968;105.834;2023-02-02T22:27:24;96.10;;;49.15;;
22606;SDS011;11470;20.968;105.834;2023-02-02T22:32:35;76.32;;;44.05;;
22606;SDS011;11470;20.968;105.834;2023-02-02T22:37:41;84.22;;;47.28;;
22606;SDS011;11470;20.968;105.834;2023-02-02T22:47:54;64.93;;;37.27;;
22606;SDS011;11470;20.968;105.834;2023-02-02T22:53:00;70.20;;;38.92;;
22606;SDS011;11470;20.968;105.834;2023-02-02T22:58:07;75.85;;;42.58;;
22606;SDS011;11470;20.968;105.834;2023-02-02T23:03:14;76.70;;;43.35;;
22606;SDS011;11470;20.968;105.834;2023-02-02T23:13:25;75.20;;;46.50;;
22606;SDS011;11470;20.968;105.834;2023-02-02T23:18:32;82.25;;;48.25;;
22606;SDS011;11470;20.968;105.834;2023-02-02T23:23:38;77.30;;;45.70;;
22606;SDS011;11470;20.968;105.834;2023-02-02T23:28:45;71.05;;;42.15;;
22606;SDS011;11470;20.968;105.834;2023-02-02T23:33:51;76.80;;;45.50;;
22606;SDS011;11470;20.968;105.834;2023-02-02T23:38:58;69.95;;;40.40;;
22606;SDS011;11470;20.968;105.834;2023-02-02T23:44:04;75.88;;;44.90;;
22606;SDS011;11470;20.968;105.834;2023-02-02T23:49:11;66.22;;;40.38;;
22606;SDS011;11470;20.968;105.834;2023-02-02T23:54:18;69.53;;;42.97;;
